^^
Saratoga-Weather Station Historical Data
Daily Summary for May 7, 2021 Units:  Metric    English   Both
Daily Weekly Monthly Yearly Custom
  High: Low: Average:
Temperature: 13.8 °C 9.3 °C 10.7 °C
Dew Point: 11.7 °C 8.5 °C 9.8 °C
Humidity: 96% 84% 94%
Wind Speed: 11.1km/h 0km/h 1.6km/h
Wind Gust: 12.9km/h - -
Wind- - SW
Pressure: 1026.8 hPa 1023.4 hPa -
Precipitation: 0.0 mm    
Historical Graphs
 
 
Tabular Data for May 7, 2021
Time Temperature Dew Point Pressure Wind Wind Speed Wind Gust Humidity Rainfall Rate (Hourly) solar
00:01 10.6 °C 9.5 °C 1023.4 hPa West 4.7 km/h 11.3 km/h 93% 0.0 mm 0 W/m2
00:07 10.6 °C 9.5 °C 1023.4 hPa WNW 6.4 km/h 11.3 km/h 93% 0.0 mm 0 W/m2
00:12 10.5 °C 9.6 °C 1023.4 hPa West 6.4 km/h 11.3 km/h 94% 0.0 mm 0 W/m2
00:17 10.5 °C 9.6 °C 1023.4 hPa West 9.7 km/h 12.9 km/h 94% 0.0 mm 0 W/m2
00:22 10.5 °C 9.6 °C 1023.4 hPa NW 4.7 km/h 11.3 km/h 94% 0.0 mm 0 W/m2
00:27 10.6 °C 9.7 °C 1023.4 hPa West 4.7 km/h 12.9 km/h 94% 0.0 mm 0 W/m2
00:32 10.7 °C 9.6 °C 1023.7 hPa West 11.1 km/h 11.3 km/h 93% 0.0 mm 0 W/m2
00:37 10.7 °C 9.6 °C 1023.7 hPa WNW 3.2 km/h 9.7 km/h 93% 0.0 mm 0 W/m2
00:42 10.8 °C 9.7 °C 1023.7 hPa WSW 1.4 km/h 4.8 km/h 93% 0.0 mm 0 W/m2
00:47 10.8 °C 9.7 °C 1024.0 hPa West 3.2 km/h 9.7 km/h 93% 0.0 mm 0 W/m2
00:52 10.8 °C 9.7 °C 1023.7 hPa West 3.2 km/h 3.2 km/h 93% 0.0 mm 0 W/m2
00:57 10.7 °C 9.6 °C 1023.7 hPa West 1.4 km/h 4.8 km/h 93% 0.0 mm 0 W/m2
01:02 10.7 °C 9.6 °C 1023.7 hPa West 3.2 km/h 4.8 km/h 93% 0.0 mm 0 W/m2
01:07 10.7 °C 9.6 °C 1024.0 hPa WNW 1.4 km/h 4.8 km/h 93% 0.0 mm 0 W/m2
01:12 10.7 °C 9.6 °C 1024.0 hPa WNW 3.2 km/h 3.2 km/h 93% 0.0 mm 0 W/m2
01:17 10.7 °C 9.6 °C 1024.0 hPa Calm   1.6 km/h 93% 0.0 mm 0 W/m2
01:22 10.7 °C 9.8 °C 1023.7 hPa Calm     94% 0.0 mm 0 W/m2
01:27 10.7 °C 9.8 °C 1023.7 hPa Calm   1.6 km/h 94% 0.0 mm 0 W/m2
01:32 10.6 °C 9.7 °C 1023.7 hPa Calm   3.2 km/h 94% 0.0 mm 0 W/m2
01:37 10.6 °C 9.7 °C 1023.7 hPa Calm   1.6 km/h 94% 0.0 mm 0 W/m2
01:42 10.6 °C 9.7 °C 1023.7 hPa Calm   3.2 km/h 94% 0.0 mm 0 W/m2
01:47 10.6 °C 9.7 °C 1024.0 hPa Calm     94% 0.0 mm 0 W/m2
01:52 10.6 °C 9.7 °C 1024.0 hPa WNW 1.4 km/h 3.2 km/h 94% 0.0 mm 0 W/m2
01:57 10.6 °C 9.7 °C 1024.0 hPa Calm     94% 0.0 mm 0 W/m2
02:02 10.6 °C 9.7 °C 1024.0 hPa Calm   3.2 km/h 94% 0.0 mm 0 W/m2
02:07 10.6 °C 9.7 °C 1024.0 hPa Calm   1.6 km/h 94% 0.0 mm 0 W/m2
02:12 10.6 °C 9.7 °C 1024.0 hPa Calm   3.2 km/h 94% 0.0 mm 0 W/m2
02:17 10.6 °C 9.7 °C 1024.0 hPa West 3.2 km/h 3.2 km/h 94% 0.0 mm 0 W/m2
02:22 10.6 °C 9.7 °C 1024.0 hPa Calm   1.6 km/h 94% 0.0 mm 0 W/m2
02:27 10.5 °C 9.6 °C 1024.0 hPa WSW 1.4 km/h 4.8 km/h 94% 0.0 mm 0 W/m2
02:32 10.5 °C 9.7 °C 1024.0 hPa WNW 1.4 km/h 3.2 km/h 95% 0.0 mm 0 W/m2
02:37 10.5 °C 9.7 °C 1024.0 hPa WSW 3.2 km/h 6.4 km/h 95% 0.0 mm 0 W/m2
02:42 10.5 °C 9.7 °C 1024.0 hPa West 1.4 km/h 3.2 km/h 95% 0.0 mm 0 W/m2
02:47 10.5 °C 9.7 °C 1024.0 hPa West 1.4 km/h 3.2 km/h 95% 0.0 mm 0 W/m2
02:52 10.5 °C 9.7 °C 1024.0 hPa West 1.4 km/h 4.8 km/h 95% 0.0 mm 0 W/m2
02:57 10.6 °C 9.8 °C 1024.0 hPa West 4.7 km/h 9.7 km/h 95% 0.0 mm 0 W/m2
03:02 10.6 °C 9.8 °C 1024.0 hPa WSW 3.2 km/h 4.8 km/h 95% 0.0 mm 0 W/m2
03:07 10.6 °C 9.8 °C 1024.0 hPa WNW 4.7 km/h 8 km/h 95% 0.0 mm 0 W/m2
03:12 10.7 °C 9.9 °C 1024.0 hPa West 6.4 km/h 9.7 km/h 95% 0.0 mm 0 W/m2
03:17 10.7 °C 9.9 °C 1024.0 hPa West 1.4 km/h 9.7 km/h 95% 0.0 mm 0 W/m2
03:22 10.8 °C 9.9 °C 1024.0 hPa WSW 1.4 km/h 6.4 km/h 94% 0.0 mm 0 W/m2
03:27 10.8 °C 9.9 °C 1024.0 hPa West 6.4 km/h 9.7 km/h 94% 0.0 mm 0 W/m2
03:32 10.8 °C 9.9 °C 1024.0 hPa West 4.7 km/h 6.4 km/h 94% 0.0 mm 0 W/m2
03:37 10.8 °C 9.9 °C 1024.0 hPa WNW 4.7 km/h 8 km/h 94% 0.0 mm 0 W/m2
03:42 10.7 °C 9.8 °C 1024.0 hPa West 4.7 km/h 6.4 km/h 94% 0.0 mm 0 W/m2
03:47 10.7 °C 9.9 °C 1024.0 hPa SW 6.4 km/h 6.4 km/h 95% 0.0 mm 0 W/m2
03:52 10.7 °C 9.9 °C 1024.0 hPa WSW 3.2 km/h 4.8 km/h 95% 0.0 mm 0 W/m2
03:57 10.7 °C 9.8 °C 1024.0 hPa Calm   3.2 km/h 94% 0.0 mm 0 W/m2
04:02 10.7 °C 9.8 °C 1024.0 hPa WSW 4.7 km/h 4.8 km/h 94% 0.0 mm 0 W/m2
04:07 10.6 °C 9.7 °C 1024.0 hPa Calm     94% 0.0 mm 0 W/m2
04:12 10.5 °C 9.6 °C 1024.0 hPa Calm   1.6 km/h 94% 0.0 mm 0 W/m2
04:17 10.4 °C 9.5 °C 1024.0 hPa Calm   4.8 km/h 94% 0.0 mm 0 W/m2
04:22 10.3 °C 9.4 °C 1024.0 hPa West 1.4 km/h 1.6 km/h 94% 0.0 mm 0 W/m2
04:27 10.3 °C 9.5 °C 1024.0 hPa West 3.2 km/h 4.8 km/h 95% 0.0 mm 0 W/m2
04:32 10.4 °C 9.6 °C 1024.0 hPa West 1.4 km/h 3.2 km/h 95% 0.0 mm 0 W/m2
04:37 10.4 °C 9.6 °C 1024.0 hPa West 1.4 km/h 4.8 km/h 95% 0.0 mm 0 W/m2
04:42 10.5 °C 9.7 °C 1024.0 hPa WNW 1.4 km/h 3.2 km/h 95% 0.0 mm 0 W/m2
04:47 10.5 °C 9.7 °C 1024.0 hPa WNW 3.2 km/h 3.2 km/h 95% 0.0 mm 0 W/m2
04:52 10.5 °C 9.7 °C 1024.0 hPa WNW 1.4 km/h 3.2 km/h 95% 0.0 mm 0 W/m2
04:57 10.5 °C 9.7 °C 1024.0 hPa West 3.2 km/h 4.8 km/h 95% 0.0 mm 0 W/m2
05:02 10.5 °C 9.7 °C 1024.0 hPa NW 3.2 km/h 4.8 km/h 95% 0.0 mm 0 W/m2
05:07 10.5 °C 9.7 °C 1024.0 hPa Calm   3.2 km/h 95% 0.0 mm 0 W/m2
05:12 10.5 °C 9.7 °C 1024.4 hPa Calm   3.2 km/h 95% 0.0 mm 0 W/m2
05:17 10.6 °C 9.8 °C 1024.0 hPa West 1.4 km/h 3.2 km/h 95% 0.0 mm 0 W/m2
05:22 10.5 °C 9.7 °C 1024.0 hPa WSW 1.4 km/h 6.4 km/h 95% 0.0 mm 0 W/m2
05:27 10.5 °C 9.7 °C 1024.0 hPa West 3.2 km/h 3.2 km/h 95% 0.0 mm 0 W/m2
05:32 10.4 °C 9.6 °C 1024.4 hPa West 3.2 km/h 4.8 km/h 95% 0.0 mm 0 W/m2
05:37 10.4 °C 9.6 °C 1024.4 hPa West 1.4 km/h 4.8 km/h 95% 0.0 mm 0 W/m2
05:42 10.3 °C 9.5 °C 1024.4 hPa WSW 1.4 km/h 3.2 km/h 95% 0.0 mm 0 W/m2
05:47 10.2 °C 9.4 °C 1024.4 hPa Calm   3.2 km/h 95% 0.0 mm 0 W/m2
05:52 10.1 °C 9.3 °C 1024.4 hPa Calm     95% 0.0 mm 0 W/m2
05:57 10.1 °C 9.3 °C 1024.4 hPa WSW 1.4 km/h 4.8 km/h 95% 0.0 mm 0 W/m2
06:02 10.1 °C 9.3 °C 1024.4 hPa West 1.4 km/h 3.2 km/h 95% 0.0 mm 0 W/m2
06:07 10.1 °C 9.3 °C 1024.4 hPa West 3.2 km/h 3.2 km/h 95% 0.0 mm 0 W/m2
06:12 10.1 °C 9.3 °C 1024.7 hPa West 1.4 km/h 3.2 km/h 95% 0.0 mm 0 W/m2
06:17 10.1 °C 9.3 °C 1024.7 hPa West 3.2 km/h 3.2 km/h 95% 0.0 mm 0 W/m2
06:22 10.1 °C 9.3 °C 1024.7 hPa West 3.2 km/h 4.8 km/h 95% 0.0 mm 0 W/m2
06:27 10 °C 9.2 °C 1024.7 hPa West 1.4 km/h 3.2 km/h 95% 0.0 mm 0 W/m2
06:32 9.9 °C 9.1 °C 1024.7 hPa West 3.2 km/h 4.8 km/h 95% 0.0 mm 0 W/m2
06:37 9.9 °C 9.1 °C 1024.7 hPa Calm   1.6 km/h 95% 0.0 mm 0 W/m2
06:42 9.8 °C 9 °C 1024.7 hPa Calm     95% 0.0 mm 0 W/m2
06:47 9.8 °C 9 °C 1024.7 hPa Calm     95% 0.0 mm 0 W/m2
06:52 9.8 °C 9 °C 1024.7 hPa Calm     95% 0.0 mm 0 W/m2
06:58 9.7 °C 8.9 °C 1024.7 hPa Calm     95% 0.0 mm 0 W/m2
07:03 9.6 °C 8.8 °C 1024.7 hPa Calm     95% 0.0 mm 0 W/m2
07:08 9.6 °C 8.8 °C 1025.1 hPa Calm     95% 0.0 mm 0 W/m2
07:13 9.5 °C 8.7 °C 1025.1 hPa Calm     95% 0.0 mm 0 W/m2
07:18 9.4 °C 8.6 °C 1025.1 hPa Calm     95% 0.0 mm 0 W/m2
07:23 9.3 °C 8.5 °C 1025.1 hPa Calm     95% 0.0 mm 0 W/m2
07:28 9.3 °C 8.5 °C 1025.1 hPa Calm     95% 0.0 mm 0 W/m2
07:33 9.3 °C 8.5 °C 1025.1 hPa Calm     95% 0.0 mm 0 W/m2
07:38 9.3 °C 8.5 °C 1025.1 hPa Calm     95% 0.0 mm 0 W/m2
07:43 9.3 °C 8.7 °C 1025.1 hPa Calm     96% 0.0 mm 0 W/m2
07:48 9.4 °C 8.8 °C 1025.1 hPa Calm     96% 0.0 mm 0 W/m2
07:53 9.4 °C 8.8 °C 1025.1 hPa Calm     96% 0.0 mm 0 W/m2
07:58 9.4 °C 8.8 °C 1025.4 hPa Calm     96% 0.0 mm 0 W/m2
08:03 9.5 °C 8.9 °C 1025.4 hPa Calm     96% 0.0 mm 5 W/m2
08:08 9.6 °C 9 °C 1025.4 hPa WSW 1.4 km/h 3.2 km/h 96% 0.0 mm 9 W/m2
08:13 9.7 °C 9.1 °C 1025.4 hPa SE 1.4 km/h 3.2 km/h 96% 0.0 mm 11 W/m2
08:18 9.7 °C 9.1 °C 1025.4 hPa Calm   3.2 km/h 96% 0.0 mm 14 W/m2
08:23 9.8 °C 9.2 °C 1025.4 hPa Calm     96% 0.0 mm 16 W/m2
08:28 9.8 °C 9.2 °C 1025.4 hPa Calm   3.2 km/h 96% 0.0 mm 21 W/m2
08:33 9.8 °C 9.2 °C 1025.7 hPa Calm     96% 0.0 mm 25 W/m2
08:38 9.9 °C 9.3 °C 1025.7 hPa Calm     96% 0.0 mm 28 W/m2
08:43 9.9 °C 9.3 °C 1025.7 hPa Calm     96% 0.0 mm 30 W/m2
08:48 10 °C 9.4 °C 1025.7 hPa Calm     96% 0.0 mm 35 W/m2
08:53 10.1 °C 9.5 °C 1025.7 hPa Calm     96% 0.0 mm 46 W/m2
08:58 10.1 °C 9.5 °C 1025.7 hPa Calm     96% 0.0 mm 58 W/m2
09:03 10.2 °C 9.6 °C 1025.7 hPa Calm     96% 0.0 mm 58 W/m2
09:08 10.2 °C 9.6 °C 1025.7 hPa Calm   3.2 km/h 96% 0.0 mm 60 W/m2
09:13 10.3 °C 9.7 °C 1025.7 hPa ENE 1.4 km/h 1.6 km/h 96% 0.0 mm 65 W/m2
09:18 10.3 °C 9.7 °C 1025.7 hPa East 3.2 km/h 3.2 km/h 96% 0.0 mm 130 W/m2
09:23 10.3 °C 9.7 °C 1025.7 hPa East 1.4 km/h 1.6 km/h 96% 0.0 mm 93 W/m2
09:28 10.4 °C 9.8 °C 1025.7 hPa Calm   3.2 km/h 96% 0.0 mm 102 W/m2
09:33 10.5 °C 9.9 °C 1025.7 hPa NE 3.2 km/h 4.8 km/h 96% 0.0 mm 93 W/m2
09:38 10.6 °C 10 °C 1025.7 hPa Calm   3.2 km/h 96% 0.0 mm 107 W/m2
09:43 10.7 °C 10.1 °C 1026.1 hPa East 1.4 km/h 3.2 km/h 96% 0.0 mm 111 W/m2
09:48 10.8 °C 10.2 °C 1026.1 hPa NE 1.4 km/h 3.2 km/h 96% 0.0 mm 121 W/m2
09:53 10.8 °C 10.2 °C 1026.1 hPa NE 1.4 km/h 1.6 km/h 96% 0.0 mm 128 W/m2
09:58 10.9 °C 10.3 °C 1026.4 hPa NE 1.4 km/h 3.2 km/h 96% 0.0 mm 90 W/m2
10:03 11 °C 10.4 °C 1026.4 hPa Calm     96% 0.0 mm 58 W/m2
10:08 11.1 °C 10.5 °C 1026.4 hPa Calm   3.2 km/h 96% 0.0 mm 54 W/m2
10:14 11.1 °C 10.3 °C 1026.4 hPa Calm     95% 0.0 mm 77 W/m2
10:19 11.1 °C 10.3 °C 1026.4 hPa Calm   1.6 km/h 95% 0.0 mm 77 W/m2
10:24 11.2 °C 10.4 °C 1026.4 hPa NE 1.4 km/h 3.2 km/h 95% 0.0 mm 81 W/m2
10:29 11.2 °C 10.4 °C 1026.4 hPa Calm     95% 0.0 mm 77 W/m2
10:34 11.3 °C 10.5 °C 1026.4 hPa Calm   3.2 km/h 95% 0.0 mm 79 W/m2
10:39 11.3 °C 10.5 °C 1026.8 hPa Calm     95% 0.0 mm 76 W/m2
10:44 11.4 °C 10.6 °C 1026.8 hPa Calm     95% 0.0 mm 86 W/m2
10:49 11.5 °C 10.6 °C 1026.8 hPa Calm     94% 0.0 mm 114 W/m2
10:54 11.6 °C 10.7 °C 1026.8 hPa Calm   1.6 km/h 94% 0.0 mm 155 W/m2
10:59 11.7 °C 10.8 °C 1026.8 hPa Calm     94% 0.0 mm 334 W/m2
11:04 11.9 °C 11 °C 1026.4 hPa North 3.2 km/h 4.8 km/h 94% 0.0 mm 656 W/m2
11:09 12.3 °C 11.4 °C 1026.4 hPa WSW 4.7 km/h 6.4 km/h 94% 0.0 mm 636 W/m2
11:14 12.6 °C 11.5 °C 1026.8 hPa WNW 1.4 km/h 3.2 km/h 93% 0.0 mm 322 W/m2
11:19 12.8 °C 11.5 °C 1026.8 hPa WNW 1.4 km/h 1.6 km/h 92% 0.0 mm 582 W/m2
11:24 13.1 °C 11.7 °C 1026.4 hPa NNE 1.4 km/h 3.2 km/h 91% 0.0 mm 188 W/m2
11:29 13.2 °C 11.4 °C 1026.8 hPa NNW 1.4 km/h 4.8 km/h 89% 0.0 mm 130 W/m2
11:34 13.1 °C 11.3 °C 1026.8 hPa South 1.4 km/h 3.2 km/h 89% 0.0 mm 135 W/m2
11:39 13.1 °C 11.3 °C 1026.8 hPa NNW 1.4 km/h 4.8 km/h 89% 0.0 mm 125 W/m2
11:44 13 °C 11.2 °C 1026.8 hPa ENE 1.4 km/h 4.8 km/h 89% 0.0 mm 125 W/m2
11:49 12.9 °C 11 °C 1026.8 hPa Calm   4.8 km/h 88% 0.0 mm 172 W/m2
11:54 12.9 °C 11 °C 1026.8 hPa NE 1.4 km/h 3.2 km/h 88% 0.0 mm 207 W/m2
11:59 13.1 °C 11.2 °C 1026.8 hPa Calm   1.6 km/h 88% 0.0 mm 334 W/m2
12:04 13.2 °C 11.3 °C 1026.8 hPa Calm   3.2 km/h 88% 0.0 mm 287 W/m2
12:09 13.4 °C 10.9 °C 1026.8 hPa East 3.2 km/h 6.4 km/h 85% 0.0 mm 197 W/m2
12:14 13.6 °C 11.1 °C 1026.8 hPa West 1.4 km/h 4.8 km/h 85% 0.0 mm 225 W/m2
12:19 13.6 °C 11.1 °C 1026.8 hPa East 1.4 km/h 6.4 km/h 85% 0.0 mm 239 W/m2
12:24 13.6 °C 10.9 °C 1026.8 hPa ENE 1.4 km/h 1.6 km/h 84% 0.0 mm 260 W/m2
12:29 13.8 °C 11.1 °C 1026.8 hPa Calm   6.4 km/h 84% 0.0 mm 478 W/m2
Juneau County Weather
Compliments of Weather Underground - 2 mb